sensor_id;sensor_type;location;lat;lon;timestamp;pressure;altitude;pressure_sealevel;temperature;humidity
51829;BME280;37881;48.024;8.774;2023-05-16T00:01:56;93601.31;;;7.98;100.00
51829;BME280;37881;48.024;8.774;2023-05-16T00:04:24;93597.88;;;7.90;100.00
51829;BME280;37881;48.024;8.774;2023-05-16T00:06:52;93601.09;;;7.82;100.00
51829;BME280;37881;48.024;8.774;2023-05-16T00:09:18;93595.22;;;7.83;100.00
51829;BME280;37881;48.024;8.774;2023-05-16T00:11:45;93589.78;;;7.83;100.00
51829;BME280;37881;48.024;8.774;2023-05-16T00:14:13;93589.06;;;7.75;100.00
51829;BME280;37881;48.024;8.774;2023-05-16T00:16:40;93589.91;;;7.69;100.00
51829;BME280;37881;48.024;8.774;2023-05-16T00:19:07;93594.16;;;7.73;100.00
51829;BME280;37881;48.024;8.774;2023-05-16T00:21:35;93590.97;;;7.78;100.00
51829;BME280;37881;48.024;8.774;2023-05-16T00:24:03;93597.16;;;7.83;100.00
51829;BME280;37881;48.024;8.774;2023-05-16T00:26:30;93591.78;;;7.75;100.00
51829;BME280;37881;48.024;8.774;2023-05-16T00:28:56;93588.28;;;7.75;100.00
51829;BME280;37881;48.024;8.774;2023-05-16T00:31:23;93590.03;;;7.54;100.00
51829;BME280;37881;48.024;8.774;2023-05-16T00:33:50;93591.81;;;7.72;100.00
51829;BME280;37881;48.024;8.774;2023-05-16T00:36:16;93588.22;;;7.78;100.00
51829;BME280;37881;48.024;8.774;2023-05-16T00:38:43;93591.81;;;7.72;100.00
51829;BME280;37881;48.024;8.774;2023-05-16T00:41:10;93590.56;;;7.80;100.00
51829;BME280;37881;48.024;8.774;2023-05-16T00:43:36;93585.50;;;7.78;100.00
51829;BME280;37881;48.024;8.774;2023-05-16T00:46:05;93588.59;;;7.80;100.00
51829;BME280;37881;48.024;8.774;2023-05-16T00:48:32;93580.91;;;7.72;100.00
51829;BME280;37881;48.024;8.774;2023-05-16T00:51:00;93584.31;;;7.83;100.00
51829;BME280;37881;48.024;8.774;2023-05-16T00:53:27;93584.59;;;7.92;100.00
51829;BME280;37881;48.024;8.774;2023-05-16T00:55:55;93576.72;;;7.98;100.00
51829;BME280;37881;48.024;8.774;2023-05-16T00:58:22;93581.06;;;7.95;100.00
51829;BME280;37881;48.024;8.774;2023-05-16T01:00:48;93573.59;;;7.99;100.00
51829;BME280;37881;48.024;8.774;2023-05-16T01:03:15;93575.88;;;8.05;100.00
51829;BME280;37881;48.024;8.774;2023-05-16T01:05:42;93573.94;;;8.05;100.00
51829;BME280;37881;48.024;8.774;2023-05-16T01:08:09;93569.53;;;8.15;100.00
51829;BME280;37881;48.024;8.774;2023-05-16T01:10:49;93573.75;;;8.19;100.00
51829;BME280;37881;48.024;8.774;2023-05-16T01:13:23;93574.47;;;8.27;100.00
51829;BME280;37881;48.024;8.774;2023-05-16T01:16:00;93570.13;;;8.30;100.00
51829;BME280;37881;48.024;8.774;2023-05-16T01:18:59;93570.69;;;8.14;100.00
51829;BME280;37881;48.024;8.774;2023-05-16T01:22:02;93569.22;;;8.06;100.00
51829;BME280;37881;48.024;8.774;2023-05-16T01:24:44;93570.56;;;7.90;100.00
51829;BME280;37881;48.024;8.774;2023-05-16T01:27:15;93571.19;;;8.05;100.00
51829;BME280;37881;48.024;8.774;2023-05-16T01:29:42;93568.75;;;8.11;100.00
51829;BME280;37881;48.024;8.774;2023-05-16T01:32:09;93569.06;;;8.20;100.00
51829;BME280;37881;48.024;8.774;2023-05-16T01:34:36;93577.19;;;8.27;100.00
51829;BME280;37881;48.024;8.774;2023-05-16T01:37:13;93575.19;;;8.31;100.00
51829;BME280;37881;48.024;8.774;2023-05-16T01:39:46;93570.44;;;8.35;100.00
51829;BME280;37881;48.024;8.774;2023-05-16T01:42:20;93576.81;;;8.25;100.00
51829;BME280;37881;48.024;8.774;2023-05-16T01:44:59;93573.00;;;8.19;100.00
51829;BME280;37881;48.024;8.774;2023-05-16T01:47:29;93567.09;;;7.86;100.00
51829;BME280;37881;48.024;8.774;2023-05-16T01:50:09;93568.47;;;8.05;100.00
51829;BME280;37881;48.024;8.774;2023-05-16T01:55:15;93568.28;;;8.19;100.00
51829;BME280;37881;48.024;8.774;2023-05-16T01:57:44;93571.72;;;8.27;100.00
51829;BME280;37881;48.024;8.774;2023-05-16T02:00:11;93558.06;;;8.27;100.00
51829;BME280;37881;48.024;8.774;2023-05-16T02:02:38;93561.91;;;8.30;100.00
51829;BME280;37881;48.024;8.774;2023-05-16T02:05:05;93560.28;;;8.36;100.00
51829;BME280;37881;48.024;8.774;2023-05-16T02:07:33;93562.59;;;8.41;100.00
51829;BME280;37881;48.024;8.774;2023-05-16T02:09:59;93555.91;;;8.46;100.00
51829;BME280;37881;48.024;8.774;2023-05-16T02:12:26;93557.78;;;8.49;100.00
51829;BME280;37881;48.024;8.774;2023-05-16T02:14:53;93554.59;;;8.54;100.00
51829;BME280;37881;48.024;8.774;2023-05-16T02:17:19;93552.66;;;8.54;100.00
51829;BME280;37881;48.024;8.774;2023-05-16T02:19:46;93548.31;;;8.57;100.00
51829;BME280;37881;48.024;8.774;2023-05-16T02:22:13;93546.28;;;8.61;100.00
51829;BME280;37881;48.024;8.774;2023-05-16T02:24:39;93552.91;;;8.64;100.00
51829;BME280;37881;48.024;8.774;2023-05-16T02:27:06;93552.28;;;8.52;100.00
51829;BME280;37881;48.024;8.774;2023-05-16T02:29:33;93554.13;;;8.59;100.00
51829;BME280;37881;48.024;8.774;2023-05-16T02:31:59;93555.69;;;8.60;100.00
51829;BME280;37881;48.024;8.774;2023-05-16T02:34:26;93550.63;;;8.58;100.00
51829;BME280;37881;48.024;8.774;2023-05-16T02:36:53;93554.09;;;8.63;100.00
51829;BME280;37881;48.024;8.774;2023-05-16T02:39:19;93552.50;;;8.65;100.00
51829;BME280;37881;48.024;8.774;2023-05-16T02:41:46;93556.78;;;8.66;100.00
51829;BME280;37881;48.024;8.774;2023-05-16T02:44:13;93551.28;;;8.70;100.00
51829;BME280;37881;48.024;8.774;2023-05-16T02:46:39;93556.81;;;8.63;100.00
51829;BME280;37881;48.024;8.774;2023-05-16T02:49:06;93548.94;;;8.68;100.00
51829;BME280;37881;48.024;8.774;2023-05-16T02:51:33;93553.97;;;8.73;100.00
51829;BME280;37881;48.024;8.774;2023-05-16T02:54:00;93549.97;;;8.78;100.00
51829;BME280;37881;48.024;8.774;2023-05-16T02:56:26;93551.88;;;8.81;100.00
51829;BME280;37881;48.024;8.774;2023-05-16T02:58:54;93545.59;;;8.84;100.00
51829;BME280;37881;48.024;8.774;2023-05-16T03:01:21;93543.31;;;8.79;100.00
51829;BME280;37881;48.024;8.774;2023-05-16T03:03:48;93545.91;;;8.90;100.00
51829;BME280;37881;48.024;8.774;2023-05-16T03:06:15;93550.94;;;8.91;100.00
51829;BME280;37881;48.024;8.774;2023-05-16T03:08:42;93541.47;;;8.99;100.00
51829;BME280;37881;48.024;8.774;2023-05-16T03:11:08;93539.22;;;8.91;100.00
51829;BME280;37881;48.024;8.774;2023-05-16T03:13:35;93551.72;;;8.65;100.00
51829;BME280;37881;48.024;8.774;2023-05-16T03:16:02;93548.56;;;8.66;100.00
51829;BME280;37881;48.024;8.774;2023-05-16T03:18:29;93548.00;;;8.78;100.00
51829;BME280;37881;48.024;8.774;2023-05-16T03:20:56;93549.94;;;8.82;100.00
51829;BME280;37881;48.024;8.774;2023-05-16T03:23:23;93540.28;;;8.73;100.00
51829;BME280;37881;48.024;8.774;2023-05-16T03:25:50;93542.91;;;8.80;100.00
51829;BME280;37881;48.024;8.774;2023-05-16T03:28:17;93551.88;;;8.81;100.00
51829;BME280;37881;48.024;8.774;2023-05-16T03:30:44;93551.72;;;8.65;100.00
51829;BME280;37881;48.024;8.774;2023-05-16T03:33:11;93554.06;;;8.66;100.00
51829;BME280;37881;48.024;8.774;2023-05-16T03:35:38;93548.84;;;8.75;100.00
51829;BME280;37881;48.024;8.774;2023-05-16T03:38:05;93544.81;;;8.84;100.00
51829;BME280;37881;48.024;8.774;2023-05-16T03:40:32;93543.22;;;8.86;100.00
51829;BME280;37881;48.024;8.774;2023-05-16T03:42:59;93548.13;;;8.98;100.00
51829;BME280;37881;48.024;8.774;2023-05-16T03:45:25;93545.38;;;8.98;100.00
51829;BME280;37881;48.024;8.774;2023-05-16T03:47:53;93537.34;;;9.11;100.00
51829;BME280;37881;48.024;8.774;2023-05-16T03:50:19;93540.81;;;9.15;100.00
51829;BME280;37881;48.024;8.774;2023-05-16T03:52:46;93536.69;;;9.27;100.00
51829;BME280;37881;48.024;8.774;2023-05-16T03:55:13;93532.31;;;9.33;100.00
51829;BME280;37881;48.024;8.774;2023-05-16T03:57:41;93536.66;;;9.31;100.00
51829;BME280;37881;48.024;8.774;2023-05-16T04:00:09;93537.84;;;9.30;100.00
51829;BME280;37881;48.024;8.774;2023-05-16T04:02:37;93540.47;;;9.37;100.00
51829;BME280;37881;48.024;8.774;2023-05-16T04:05:07;93546.84;;;9.30;100.00
51829;BME280;37881;48.024;8.774;2023-05-16T04:07:35;93540.09;;;9.35;100.00
51829;BME280;37881;48.024;8.774;2023-05-16T04:10:03;93541.72;;;9.32;100.00
51829;BME280;37881;48.024;8.774;2023-05-16T04:12:30;93538.63;;;9.30;100.00
51829;BME280;37881;48.024;8.774;2023-05-16T04:14:56;93547.66;;;9.27;100.00
51829;BME280;37881;48.024;8.774;2023-05-16T04:17:23;93548.44;;;9.28;100.00
51829;BME280;37881;48.024;8.774;2023-05-16T04:19:50;93539.69;;;9.36;100.00
51829;BME280;37881;48.024;8.774;2023-05-16T04:22:20;93545.16;;;9.36;100.00
51829;BME280;37881;48.024;8.774;2023-05-16T04:24:46;93543.69;;;9.32;100.00
51829;BME280;37881;48.024;8.774;2023-05-16T04:27:13;93544.91;;;9.27;100.00
51829;BME280;37881;48.024;8.774;2023-05-16T04:29:40;93546.34;;;9.35;100.00
51829;BME280;37881;48.024;8.774;2023-05-16T04:32:07;93547.91;;;9.36;100.00
51829;BME280;37881;48.024;8.774;2023-05-16T04:34:34;93549.22;;;9.28;100.00
51829;BME280;37881;48.024;8.774;2023-05-16T04:37:06;93544.81;;;9.34;100.00
51829;BME280;37881;48.024;8.774;2023-05-16T04:39:35;93546.28;;;9.39;100.00
51829;BME280;37881;48.024;8.774;2023-05-16T04:42:02;93552.63;;;9.36;100.00
51829;BME280;37881;48.024;8.774;2023-05-16T04:44:30;93549.53;;;9.34;100.00
51829;BME280;37881;48.024;8.774;2023-05-16T04:46:57;93547.78;;;9.44;100.00
51829;BME280;37881;48.024;8.774;2023-05-16T04:49:24;93552.38;;;9.50;100.00
51829;BME280;37881;48.024;8.774;2023-05-16T04:51:51;93557.56;;;9.45;100.00
51829;BME280;37881;48.024;8.774;2023-05-16T04:54:17;93545.03;;;9.44;100.00
51829;BME280;37881;48.024;8.774;2023-05-16T04:56:44;93546.41;;;9.55;100.00
51829;BME280;37881;48.024;8.774;2023-05-16T04:59:11;93549.50;;;9.57;100.00
51829;BME280;37881;48.024;8.774;2023-05-16T05:01:38;93546.75;;;9.57;100.00
51829;BME280;37881;48.024;8.774;2023-05-16T05:04:05;93554.56;;;9.59;100.00
51829;BME280;37881;48.024;8.774;2023-05-16T05:06:32;93550.66;;;9.60;100.00
51829;BME280;37881;48.024;8.774;2023-05-16T05:08:59;93556.00;;;9.44;100.00
51829;BME280;37881;48.024;8.774;2023-05-16T05:11:25;93561.09;;;9.42;100.00
51829;BME280;37881;48.024;8.774;2023-05-16T05:13:52;93549.50;;;9.57;100.00
51829;BME280;37881;48.024;8.774;2023-05-16T05:16:19;93560.09;;;9.55;100.00
51829;BME280;37881;48.024;8.774;2023-05-16T05:18:46;93552.94;;;9.62;100.00
51829;BME280;37881;48.024;8.774;2023-05-16T05:21:13;93551.38;;;9.64;100.00
51829;BME280;37881;48.024;8.774;2023-05-16T05:23:39;93549.78;;;9.63;100.00
51829;BME280;37881;48.024;8.774;2023-05-16T05:26:06;93562.47;;;9.77;100.00
51829;BME280;37881;48.024;8.774;2023-05-16T05:28:33;93562.97;;;9.72;100.00
51829;BME280;37881;48.024;8.774;2023-05-16T05:31:00;93551.47;;;9.57;100.00
51829;BME280;37881;48.024;8.774;2023-05-16T05:33:27;93558.66;;;9.71;100.00
51829;BME280;37881;48.024;8.774;2023-05-16T05:35:55;93559.69;;;9.80;100.00
51829;BME280;37881;48.024;8.774;2023-05-16T05:38:22;93556.28;;;9.73;100.00
51829;BME280;37881;48.024;8.774;2023-05-16T05:40:48;93553.44;;;9.80;100.00
51829;BME280;37881;48.024;8.774;2023-05-16T05:43:15;93565.31;;;9.70;100.00
51829;BME280;37881;48.024;8.774;2023-05-16T05:45:43;93561.84;;;9.89;100.00
51829;BME280;37881;48.024;8.774;2023-05-16T05:48:10;93563.41;;;9.90;100.00
51829;BME280;37881;48.024;8.774;2023-05-16T05:50:38;93562.06;;;9.78;100.00
51829;BME280;37881;48.024;8.774;2023-05-16T05:53:04;93568.81;;;9.94;100.00
51829;BME280;37881;48.024;8.774;2023-05-16T05:55:31;93560.81;;;10.03;100.00
51829;BME280;37881;48.024;8.774;2023-05-16T05:57:58;93564.34;;;10.04;100.00
51829;BME280;37881;48.024;8.774;2023-05-16T06:00:25;93565.72;;;9.72;100.00
51829;BME280;37881;48.024;8.774;2023-05-16T06:02:51;93575.72;;;9.82;100.00
51829;BME280;37881;48.024;8.774;2023-05-16T06:05:19;93582.38;;;9.81;100.00
51829;BME280;37881;48.024;8.774;2023-05-16T06:07:45;93582.16;;;9.72;100.00
51829;BME280;37881;48.024;8.774;2023-05-16T06:10:12;93579.16;;;9.63;100.00
51829;BME280;37881;48.024;8.774;2023-05-16T06:12:39;93582.69;;;9.63;100.00
51829;BME280;37881;48.024;8.774;2023-05-16T06:15:06;93586.00;;;9.74;100.00
51829;BME280;37881;48.024;8.774;2023-05-16T06:17:33;93586.63;;;9.62;100.00
51829;BME280;37881;48.024;8.774;2023-05-16T06:20:00;93586.06;;;9.71;100.00
51829;BME280;37881;48.024;8.774;2023-05-16T06:22:27;93581.66;;;9.77;100.00
51829;BME280;37881;48.024;8.774;2023-05-16T06:24:53;93588.63;;;9.82;100.00
51829;BME280;37881;48.024;8.774;2023-05-16T06:27:20;93589.84;;;10.00;100.00
51829;BME280;37881;48.024;8.774;2023-05-16T06:29:47;93589.47;;;9.78;100.00
51829;BME280;37881;48.024;8.774;2023-05-16T06:32:13;93586.78;;;9.75;100.00
51829;BME280;37881;48.024;8.774;2023-05-16T06:34:40;93587.75;;;10.08;100.00
51829;BME280;37881;48.024;8.774;2023-05-16T06:37:07;93598.44;;;10.03;100.00
51829;BME280;37881;48.024;8.774;2023-05-16T06:39:33;93589.88;;;9.77;100.00
51829;BME280;37881;48.024;8.774;2023-05-16T06:42:00;93586.75;;;9.98;100.00
51829;BME280;37881;48.024;8.774;2023-05-16T06:44:27;93593.94;;;9.92;100.00
51829;BME280;37881;48.024;8.774;2023-05-16T06:46:54;93593.72;;;10.03;100.00
51829;BME280;37881;48.024;8.774;2023-05-16T06:49:21;93594.41;;;9.87;100.00
51829;BME280;37881;48.024;8.774;2023-05-16T06:51:47;93593.16;;;10.12;100.00
51829;BME280;37881;48.024;8.774;2023-05-16T06:54:14;93594.38;;;10.11;100.00
51829;BME280;37881;48.024;8.774;2023-05-16T06:56:41;93595.03;;;9.95;100.00
51829;BME280;37881;48.024;8.774;2023-05-16T06:59:08;93593.47;;;9.94;100.00
51829;BME280;37881;48.024;8.774;2023-05-16T07:01:34;93599.44;;;10.12;100.00
51829;BME280;37881;48.024;8.774;2023-05-16T07:04:01;93591.16;;;10.36;100.00
51829;BME280;37881;48.024;8.774;2023-05-16T07:06:28;93600.22;;;10.13;100.00
51829;BME280;37881;48.024;8.774;2023-05-16T07:08:55;93601.25;;;10.43;100.00
51829;BME280;37881;48.024;8.774;2023-05-16T07:11:22;93596.38;;;10.50;100.00
51829;BME280;37881;48.024;8.774;2023-05-16T07:13:48;93598.63;;;10.55;100.00
51829;BME280;37881;48.024;8.774;2023-05-16T07:16:15;93585.03;;;10.68;100.00
51829;BME280;37881;48.024;8.774;2023-05-16T07:18:42;93584.13;;;10.75;100.00
51829;BME280;37881;48.024;8.774;2023-05-16T07:21:09;93590.22;;;10.83;100.00
51829;BME280;37881;48.024;8.774;2023-05-16T07:23:36;93594.16;;;10.82;100.00
51829;BME280;37881;48.024;8.774;2023-05-16T07:26:03;93593.13;;;10.75;100.00
51829;BME280;37881;48.024;8.774;2023-05-16T07:28:30;93583.28;;;10.58;100.00
51829;BME280;37881;48.024;8.774;2023-05-16T07:30:57;93593.47;;;10.57;100.00
51829;BME280;37881;48.024;8.774;2023-05-16T07:33:26;93590.16;;;11.03;100.00
51829;BME280;37881;48.024;8.774;2023-05-16T07:35:53;93593.44;;;11.14;100.00
51829;BME280;37881;48.024;8.774;2023-05-16T07:38:40;93586.31;;;11.16;100.00
51829;BME280;37881;48.024;8.774;2023-05-16T07:41:06;93592.09;;;11.55;100.00
51829;BME280;37881;48.024;8.774;2023-05-16T07:43:33;93597.78;;;11.64;100.00
51829;BME280;37881;48.024;8.774;2023-05-16T07:46:01;93601.97;;;11.69;100.00
51829;BME280;37881;48.024;8.774;2023-05-16T07:48:28;93595.19;;;12.06;100.00
51829;BME280;37881;48.024;8.774;2023-05-16T07:50:55;93601.53;;;11.87;100.00
51829;BME280;37881;48.024;8.774;2023-05-16T07:53:22;93595.81;;;12.56;100.00
51829;BME280;37881;48.024;8.774;2023-05-16T07:55:49;93602.19;;;12.53;100.00
51829;BME280;37881;48.024;8.774;2023-05-16T07:58:16;93599.97;;;13.03;100.00
51829;BME280;37881;48.024;8.774;2023-05-16T08:00:43;93601.25;;;12.85;100.00
51829;BME280;37881;48.024;8.774;2023-05-16T08:03:09;93592.72;;;12.96;100.00
51829;BME280;37881;48.024;8.774;2023-05-16T08:05:36;93593.09;;;12.82;100.00
51829;BME280;37881;48.024;8.774;2023-05-16T08:08:03;93597.34;;;12.57;100.00
51829;BME280;37881;48.024;8.774;2023-05-16T08:10:30;93601.22;;;12.30;100.00
51829;BME280;37881;48.024;8.774;2023-05-16T08:12:57;93603.47;;;11.90;100.00
51829;BME280;37881;48.024;8.774;2023-05-16T08:15:26;93607.31;;;11.92;100.00
51829;BME280;37881;48.024;8.774;2023-05-16T08:17:57;93611.00;;;11.36;100.00
51829;BME280;37881;48.024;8.774;2023-05-16T08:20:24;93614.19;;;11.35;100.00
51829;BME280;37881;48.024;8.774;2023-05-16T08:22:51;93624.59;;;11.07;100.00
51829;BME280;37881;48.024;8.774;2023-05-16T08:25:18;93616.56;;;10.96;100.00
51829;BME280;37881;48.024;8.774;2023-05-16T08:27:45;93629.56;;;11.12;100.00
51829;BME280;37881;48.024;8.774;2023-05-16T08:30:12;93618.16;;;11.14;100.00
51829;BME280;37881;48.024;8.774;2023-05-16T08:32:40;93620.53;;;10.95;100.00
51829;BME280;37881;48.024;8.774;2023-05-16T08:35:07;93629.00;;;10.85;100.00
51829;BME280;37881;48.024;8.774;2023-05-16T08:37:34;93637.72;;;10.99;100.00
51829;BME280;37881;48.024;8.774;2023-05-16T08:42:34;93634.31;;;11.12;100.00
51829;BME280;37881;48.024;8.774;2023-05-16T08:45:01;93635.41;;;11.14;100.00
51829;BME280;37881;48.024;8.774;2023-05-16T08:47:30;93637.78;;;10.96;100.00
51829;BME280;37881;48.024;8.774;2023-05-16T08:49:57;93646.03;;;10.76;100.00
51829;BME280;37881;48.024;8.774;2023-05-16T08:52:26;93651.22;;;10.70;100.00
51829;BME280;37881;48.024;8.774;2023-05-16T08:54:58;93648.66;;;10.83;100.00
51829;BME280;37881;48.024;8.774;2023-05-16T08:57:31;93650.41;;;10.53;100.00
51829;BME280;37881;48.024;8.774;2023-05-16T08:59:59;93654.25;;;10.36;100.00
51829;BME280;37881;48.024;8.774;2023-05-16T09:02:27;93653.72;;;10.65;100.00
51829;BME280;37881;48.024;8.774;2023-05-16T09:04:55;93653.72;;;10.65;100.00
51829;BME280;37881;48.024;8.774;2023-05-16T09:07:23;93654.06;;;10.67;100.00
51829;BME280;37881;48.024;8.774;2023-05-16T09:09:50;93662.59;;;10.52;100.00
51829;BME280;37881;48.024;8.774;2023-05-16T09:12:18;93659.19;;;10.45;100.00
51829;BME280;37881;48.024;8.774;2023-05-16T09:14:45;93657.78;;;10.36;100.00
51829;BME280;37881;48.024;8.774;2023-05-16T09:17:12;93665.50;;;10.42;100.00
51829;BME280;37881;48.024;8.774;2023-05-16T09:19:46;93657.09;;;10.32;100.00
51829;BME280;37881;48.024;8.774;2023-05-16T09:22:17;93662.97;;;9.84;100.00
51829;BME280;37881;48.024;8.774;2023-05-16T09:24:44;93659.59;;;9.76;100.00
51829;BME280;37881;48.024;8.774;2023-05-16T09:27:13;93665.25;;;9.89;100.00
51829;BME280;37881;48.024;8.774;2023-05-16T09:29:41;93658.03;;;9.98;100.00
51829;BME280;37881;48.024;8.774;2023-05-16T09:32:12;93652.06;;;10.04;100.00
51829;BME280;37881;48.024;8.774;2023-05-16T09:34:44;93663.47;;;10.02;100.00
51829;BME280;37881;48.024;8.774;2023-05-16T09:37:11;93658.44;;;9.97;100.00
51829;BME280;37881;48.024;8.774;2023-05-16T09:39:44;93670.84;;;9.82;100.00
51829;BME280;37881;48.024;8.774;2023-05-16T09:42:12;93670.41;;;9.59;100.00
51829;BME280;37881;48.024;8.774;2023-05-16T09:44:39;93676.03;;;9.49;100.00
51829;BME280;37881;48.024;8.774;2023-05-16T09:47:06;93667.81;;;9.76;100.00
51829;BME280;37881;48.024;8.774;2023-05-16T09:49:36;93670.59;;;9.72;100.00
51829;BME280;37881;48.024;8.774;2023-05-16T09:52:03;93666.31;;;9.95;100.00
51829;BME280;37881;48.024;8.774;2023-05-16T09:54:33;93663.94;;;9.97;100.00
51829;BME280;37881;48.024;8.774;2023-05-16T09:57:01;93667.63;;;10.10;100.00
51829;BME280;37881;48.024;8.774;2023-05-16T09:59:38;93659.75;;;9.65;100.00
51829;BME280;37881;48.024;8.774;2023-05-16T10:02:06;93669.34;;;9.77;100.00
51829;BME280;37881;48.024;8.774;2023-05-16T10:04:36;93666.22;;;9.51;100.00
51829;BME280;37881;48.024;8.774;2023-05-16T10:07:04;93669.59;;;9.63;100.00
51829;BME280;37881;48.024;8.774;2023-05-16T10:09:33;93673.47;;;9.89;100.00
51829;BME280;37881;48.024;8.774;2023-05-16T10:12:03;93662.13;;;10.34;100.00
51829;BME280;37881;48.024;8.774;2023-05-16T10:14:35;93654.00;;;10.50;100.00
51829;BME280;37881;48.024;8.774;2023-05-16T10:17:06;93659.34;;;10.77;100.00
51829;BME280;37881;48.024;8.774;2023-05-16T10:19:37;93652.22;;;10.40;100.00
51829;BME280;37881;48.024;8.774;2023-05-16T10:22:05;93660.19;;;10.54;100.00
51829;BME280;37881;48.024;8.774;2023-05-16T10:24:44;93655.75;;;10.41;100.00
51829;BME280;37881;48.024;8.774;2023-05-16T10:27:14;93662.94;;;10.54;100.00
51829;BME280;37881;48.024;8.774;2023-05-16T10:29:44;93656.72;;;10.70;100.00
51829;BME280;37881;48.024;8.774;2023-05-16T10:32:22;93662.84;;;10.58;100.00
51829;BME280;37881;48.024;8.774;2023-05-16T10:34:49;93650.50;;;10.26;100.00
51829;BME280;37881;48.024;8.774;2023-05-16T10:37:16;93647.75;;;10.26;100.00
51829;BME280;37881;48.024;8.774;2023-05-16T10:39:44;93656.47;;;10.45;100.00
51829;BME280;37881;48.024;8.774;2023-05-16T10:42:11;93657.94;;;10.49;100.00
51829;BME280;37881;48.024;8.774;2023-05-16T10:44:43;93665.09;;;10.43;100.00
51829;BME280;37881;48.024;8.774;2023-05-16T10:47:23;93670.53;;;10.87;100.00
51829;BME280;37881;48.024;8.774;2023-05-16T10:49:50;93667.94;;;10.79;100.00
51829;BME280;37881;48.024;8.774;2023-05-16T10:52:17;93663.06;;;10.47;100.00
51829;BME280;37881;48.024;8.774;2023-05-16T10:54:50;93675.38;;;10.59;100.00
51829;BME280;37881;48.024;8.774;2023-05-16T10:57:22;93673.94;;;10.31;100.00
51829;BME280;37881;48.024;8.774;2023-05-16T10:59:50;93672.56;;;9.95;100.00
51829;BME280;37881;48.024;8.774;2023-05-16T11:02:26;93673.16;;;10.07;100.00
51829;BME280;37881;48.024;8.774;2023-05-16T11:04:55;93675.44;;;10.35;100.00
51829;BME280;37881;48.024;8.774;2023-05-16T11:07:23;93679.66;;;10.80;100.00
51829;BME280;37881;48.024;8.774;2023-05-16T11:10:08;93673.06;;;10.97;100.00
51829;BME280;37881;48.024;8.774;2023-05-16T11:12:41;93675.19;;;11.26;100.00
51829;BME280;37881;48.024;8.774;2023-05-16T11:15:26;93671.78;;;11.02;100.00
51829;BME280;37881;48.024;8.774;2023-05-16T11:20:34;93665.47;;;11.22;100.00
51829;BME280;37881;48.024;8.774;2023-05-16T11:23:18;93671.00;;;11.02;100.00
51829;BME280;37881;48.024;8.774;2023-05-16T11:25:49;93674.06;;;10.67;100.00
51829;BME280;37881;48.024;8.774;2023-05-16T11:28:17;93681.03;;;10.28;100.00
51829;BME280;37881;48.024;8.774;2023-05-16T11:30:48;93679.22;;;10.18;100.00
51829;BME280;37881;48.024;8.774;2023-05-16T11:33:15;93680.28;;;10.48;100.00
51829;BME280;37881;48.024;8.774;2023-05-16T11:35:43;93670.00;;;10.32;100.00
51829;BME280;37881;48.024;8.774;2023-05-16T11:38:39;93681.78;;;10.32;100.00
51829;BME280;37881;48.024;8.774;2023-05-16T11:41:09;93674.38;;;10.49;100.00
51829;BME280;37881;48.024;8.774;2023-05-16T11:43:43;93679.94;;;10.66;100.00
51829;BME280;37881;48.024;8.774;2023-05-16T11:46:14;93681.00;;;10.92;100.00
51829;BME280;37881;48.024;8.774;2023-05-16T11:48:42;93666.69;;;11.57;100.00
51829;BME280;37881;48.024;8.774;2023-05-16T11:51:12;93657.06;;;11.65;100.00
51829;BME280;37881;48.024;8.774;2023-05-16T11:53:47;93660.22;;;11.80;100.00
51829;BME280;37881;48.024;8.774;2023-05-16T11:56:15;93660.53;;;12.31;100.00
51829;BME280;37881;48.024;8.774;2023-05-16T11:58:42;93654.34;;;12.44;100.00
51829;BME280;37881;48.024;8.774;2023-05-16T12:01:09;93653.03;;;12.48;100.00
51829;BME280;37881;48.024;8.774;2023-05-16T12:03:36;93655.75;;;12.35;100.00
51829;BME280;37881;48.024;8.774;2023-05-16T12:06:04;93659.94;;;12.40;100.00
51829;BME280;37881;48.024;8.774;2023-05-16T12:08:31;93657.25;;;11.91;100.00
51829;BME280;37881;48.024;8.774;2023-05-16T12:10:59;93670.69;;;11.52;100.00
51829;BME280;37881;48.024;8.774;2023-05-16T12:13:26;93665.31;;;10.92;100.00
51829;BME280;37881;48.024;8.774;2023-05-16T12:15:53;93675.69;;;11.21;100.00
51829;BME280;37881;48.024;8.774;2023-05-16T12:18:20;93674.22;;;11.16;100.00
51829;BME280;37881;48.024;8.774;2023-05-16T12:20:47;93672.53;;;11.03;100.00
51829;BME280;37881;48.024;8.774;2023-05-16T12:23:15;93672.06;;;10.88;100.00
51829;BME280;37881;48.024;8.774;2023-05-16T12:25:46;93675.16;;;10.70;100.00
51829;BME280;37881;48.024;8.774;2023-05-16T12:28:13;93673.19;;;10.70;100.00
51829;BME280;37881;48.024;8.774;2023-05-16T12:30:42;93674.88;;;10.64;100.00
51829;BME280;37881;48.024;8.774;2023-05-16T12:33:11;93674.13;;;10.64;100.00
51829;BME280;37881;48.024;8.774;2023-05-16T12:35:40;93674.66;;;10.35;100.00
51829;BME280;37881;48.024;8.774;2023-05-16T12:38:10;93683.88;;;10.21;100.00
51829;BME280;37881;48.024;8.774;2023-05-16T12:40:40;93687.59;;;10.34;100.00
51829;BME280;37881;48.024;8.774;2023-05-16T12:43:19;93679.38;;;10.34;100.00
51829;BME280;37881;48.024;8.774;2023-05-16T12:45:50;93682.19;;;10.31;100.00
51829;BME280;37881;48.024;8.774;2023-05-16T12:48:18;93691.75;;;10.19;100.00
51829;BME280;37881;48.024;8.774;2023-05-16T12:50:45;93694.19;;;10.13;100.00
51829;BME280;37881;48.024;8.774;2023-05-16T12:53:13;93690.19;;;10.18;100.00
51829;BME280;37881;48.024;8.774;2023-05-16T12:55:41;93700.63;;;10.03;100.00
51829;BME280;37881;48.024;8.774;2023-05-16T12:58:09;93695.69;;;10.42;100.00
51829;BME280;37881;48.024;8.774;2023-05-16T13:00:37;93695.34;;;10.39;100.00
51829;BME280;37881;48.024;8.774;2023-05-16T13:03:05;93697.75;;;10.57;100.00
51829;BME280;37881;48.024;8.774;2023-05-16T13:05:32;93695.16;;;10.90;100.00
51829;BME280;37881;48.024;8.774;2023-05-16T13:08:00;93697.69;;;11.01;100.00
51829;BME280;37881;48.024;8.774;2023-05-16T13:10:28;93704.72;;;11.02;100.00